• Join FlightAware (Why Join?)
  • Login
  • US Flag 
11:44PM EDT


 

Airport Tracker/Info


-or-


 

Live Flight TrackerFlight Track Log ✈ EGF2566 ✈ 07-Apr-2013 ✈ KBTR - KDFW

Flight Track Log - Related Links

Times and Time Zones

All times are in EDT time to prevent confusion due to time zone crossing. See the EGF2566 flight status page for this flight to view local times or setup timezone preferences in your user account.

Time Position Orientation Groundspeed Altitude Reporting Facility
EDT Latitude Longitude Course Direction KTS MPH feet Rate Location/Type
08:33PM 30.6397 -91.3961 297° West  Level Estimated
08:34PM 30.6751 -91.4783 297° West  Level Estimated
08:35PM 30.7106 -91.5605 297° West  Level Estimated
08:36PM 30.7459 -91.6428 297° West  Level Estimated
08:37PM 30.7812 -91.7252 297° West  Level Estimated
08:38PM 30.8165 -91.8076 296° West  Level Estimated
08:39PM 30.8517 -91.8901 296° West  Level Estimated
08:40PM 30.8869 -91.9727 296° West  Level Estimated
08:41PM 30.9220 -92.0553 296° West  Level Estimated
08:42PM 30.9571 -92.1380 296° West  Level Estimated
08:43PM 30.9921 -92.2207 296° West  Level Estimated
08:44PM 31.0270 -92.3035 296° West  Level Estimated
08:45PM 31.0619 -92.3864 296° West  Level Estimated
08:46PM 31.0968 -92.4693 296° West  Level Estimated
08:47PM 31.1316 -92.5523 296° West  Level Estimated
08:48PM 31.1663 -92.6353 296° West  Level Estimated
08:49PM 31.2010 -92.7184 296° West  Level Estimated
08:50PM 31.2356 -92.8016 296° West  Level Estimated
08:51PM 31.2702 -92.8848 296° West  Level Estimated
08:52PM 31.3048 -92.9680 296° West  Level Estimated
08:53PM 31.3392 -93.0514 296° West  Level Estimated
08:54PM 31.3736 -93.1348 296° West  Level Estimated
08:55PM 31.4080 -93.2183 296° West  Level Estimated
08:56PM 31.4423 -93.3018 296° West  Level Estimated
08:57PM 31.4766 -93.3854 296° West  Level Estimated
08:58PM 31.5108 -93.4690 296° West  Level Estimated
08:59PM 31.5449 -93.5527 296° West  Level Estimated
09:00PM 31.5790 -93.6365 296° West  Level Estimated
09:01PM 31.6131 -93.7203 296° West  Level Estimated
09:02PM 31.6471 -93.8042 295° West  Level Estimated
09:03PM 31.6810 -93.8882 295° West  Level Estimated
09:04PM 31.7149 -93.9722 295° West  Level Estimated
09:05PM 31.7487 -94.0563 295° West  Level Estimated
09:06PM 31.7824 -94.1404 295° West  Level Estimated
09:07PM 31.8162 -94.2246 295° West  Level Estimated
09:08PM 31.8498 -94.3089 295° West  Level Estimated
09:09PM 31.8834 -94.3932 295° West  Level Estimated
09:10PM 31.9170 -94.4776 295° West  Level Estimated
09:11PM 31.9504 -94.5620 295° West  Level Estimated
09:12PM 31.9839 -94.6466 295° West  Level Estimated
09:13PM 32.0173 -94.7311 295° West  Level Estimated
09:14PM 32.0506 -94.8158 295° West  Level Estimated
09:15PM 32.0838 -94.9005 295° West  Level Estimated
09:16PM 32.1170 -94.9852 295° West  Level Estimated
09:17PM 32.1502 -95.0700 295° West  Level Estimated
09:18PM 32.1833 -95.1549 295° West  Level Estimated
09:19PM 32.2163 -95.2398 295° West  Level Estimated
09:20PM 32.2493 -95.3248 295° West  Level Estimated
09:21PM 32.2822 -95.4099 295° West  Level Estimated
09:22PM 32.3151 -95.4950 295° West  Level Estimated
09:23PM 32.3479 -95.5802 295° West  Level Estimated
09:24PM 32.3806 -95.6655 294° West  Level Estimated
09:25PM 32.4133 -95.7508 294° West  Level Estimated
09:26PM 32.4460 -95.8361 294° West  Level Estimated
09:27PM 32.4786 -95.9216 294° West  Level Estimated
09:28PM 32.5111 -96.0071 294° West  Level Estimated
09:29PM 32.5435 -96.0926 294° West  Level Estimated
09:30PM 32.5759 -96.1783 294° West  Level Estimated
09:31PM 32.6083 -96.2639 294° West  Level Estimated
09:32PM 32.6406 -96.3497 294° West  Level Estimated
09:33PM 32.6728 -96.4355 294° West  Level Estimated
09:34PM 32.7050 -96.5213 294° West  Level Estimated
09:35PM 32.7371 -96.6073 294° West  Level Estimated
09:36PM 32.7691 -96.6933 294° West  Level Estimated